sensor_id;sensor_type;location;lat;lon;timestamp;P1;durP1;ratioP1;P2;durP2;ratioP2
54139;SDS011;40046;53.254;5.900;2024-02-16T00:00:06;9.50;;;5.43;;
54139;SDS011;40046;53.254;5.900;2024-02-16T00:02:37;12.70;;;6.28;;
54139;SDS011;40046;53.254;5.900;2024-02-16T00:05:04;9.68;;;4.93;;
54139;SDS011;40046;53.254;5.900;2024-02-16T00:07:31;17.15;;;6.22;;
54139;SDS011;40046;53.254;5.900;2024-02-16T00:09:57;11.15;;;5.07;;
54139;SDS011;40046;53.254;5.900;2024-02-16T00:12:23;12.70;;;4.95;;
54139;SDS011;40046;53.254;5.900;2024-02-16T00:14:50;13.90;;;5.70;;
54139;SDS011;40046;53.254;5.900;2024-02-16T00:17:16;9.55;;;4.80;;
54139;SDS011;40046;53.254;5.900;2024-02-16T00:19:42;9.60;;;4.60;;
54139;SDS011;40046;53.254;5.900;2024-02-16T00:22:08;8.57;;;4.22;;
54139;SDS011;40046;53.254;5.900;2024-02-16T00:24:35;15.63;;;5.32;;
54139;SDS011;40046;53.254;5.900;2024-02-16T00:27:02;9.23;;;5.05;;
54139;SDS011;40046;53.254;5.900;2024-02-16T00:29:31;8.93;;;4.45;;
54139;SDS011;40046;53.254;5.900;2024-02-16T00:31:57;8.40;;;4.82;;
54139;SDS011;40046;53.254;5.900;2024-02-16T00:34:26;7.88;;;5.13;;
54139;SDS011;40046;53.254;5.900;2024-02-16T00:36:52;10.45;;;5.25;;
54139;SDS011;40046;53.254;5.900;2024-02-16T00:39:18;11.45;;;5.10;;
54139;SDS011;40046;53.254;5.900;2024-02-16T00:41:44;9.88;;;4.75;;
54139;SDS011;40046;53.254;5.900;2024-02-16T00:44:11;9.57;;;4.80;;
54139;SDS011;40046;53.254;5.900;2024-02-16T00:46:37;8.43;;;4.85;;
54139;SDS011;40046;53.254;5.900;2024-02-16T00:49:04;8.15;;;5.47;;
54139;SDS011;40046;53.254;5.900;2024-02-16T00:51:30;7.18;;;4.90;;
54139;SDS011;40046;53.254;5.900;2024-02-16T00:53:56;8.25;;;4.88;;
54139;SDS011;40046;53.254;5.900;2024-02-16T00:56:22;10.40;;;5.65;;
54139;SDS011;40046;53.254;5.900;2024-02-16T00:58:48;17.35;;;6.05;;
54139;SDS011;40046;53.254;5.900;2024-02-16T01:01:15;7.65;;;4.55;;
54139;SDS011;40046;53.254;5.900;2024-02-16T01:03:41;7.70;;;4.72;;
54139;SDS011;40046;53.254;5.900;2024-02-16T01:06:08;10.70;;;4.80;;
54139;SDS011;40046;53.254;5.900;2024-02-16T01:08:35;7.75;;;4.28;;
54139;SDS011;40046;53.254;5.900;2024-02-16T01:11:01;8.63;;;4.55;;
54139;SDS011;40046;53.254;5.900;2024-02-16T01:13:27;9.20;;;5.05;;
54139;SDS011;40046;53.254;5.900;2024-02-16T01:15:54;9.18;;;4.82;;
54139;SDS011;40046;53.254;5.900;2024-02-16T01:18:20;8.18;;;4.60;;
54139;SDS011;40046;53.254;5.900;2024-02-16T01:20:46;10.57;;;5.03;;
54139;SDS011;40046;53.254;5.900;2024-02-16T01:23:12;8.43;;;5.15;;
54139;SDS011;40046;53.254;5.900;2024-02-16T01:25:39;8.20;;;4.32;;
54139;SDS011;40046;53.254;5.900;2024-02-16T01:28:05;10.15;;;4.78;;
54139;SDS011;40046;53.254;5.900;2024-02-16T01:30:31;8.77;;;4.25;;
54139;SDS011;40046;53.254;5.900;2024-02-16T01:32:57;15.85;;;4.72;;
54139;SDS011;40046;53.254;5.900;2024-02-16T01:35:23;7.10;;;4.20;;
54139;SDS011;40046;53.254;5.900;2024-02-16T01:37:49;10.30;;;5.18;;
54139;SDS011;40046;53.254;5.900;2024-02-16T01:40:15;6.13;;;4.18;;
54139;SDS011;40046;53.254;5.900;2024-02-16T01:42:52;8.25;;;4.55;;
54139;SDS011;40046;53.254;5.900;2024-02-16T01:45:18;6.63;;;3.85;;
54139;SDS011;40046;53.254;5.900;2024-02-16T01:47:44;8.48;;;4.55;;
54139;SDS011;40046;53.254;5.900;2024-02-16T01:50:12;8.50;;;4.03;;
54139;SDS011;40046;53.254;5.900;2024-02-16T01:52:40;11.15;;;4.75;;
54139;SDS011;40046;53.254;5.900;2024-02-16T01:55:06;6.70;;;4.20;;
54139;SDS011;40046;53.254;5.900;2024-02-16T01:57:36;6.18;;;4.03;;
54139;SDS011;40046;53.254;5.900;2024-02-16T02:00:02;6.72;;;3.92;;
54139;SDS011;40046;53.254;5.900;2024-02-16T02:02:30;9.15;;;4.65;;
54139;SDS011;40046;53.254;5.900;2024-02-16T02:04:56;11.52;;;4.28;;
54139;SDS011;40046;53.254;5.900;2024-02-16T02:07:24;7.45;;;3.95;;
54139;SDS011;40046;53.254;5.900;2024-02-16T02:09:52;6.07;;;3.65;;
54139;SDS011;40046;53.254;5.900;2024-02-16T02:12:18;9.63;;;4.40;;
54139;SDS011;40046;53.254;5.900;2024-02-16T02:14:44;7.63;;;4.32;;
54139;SDS011;40046;53.254;5.900;2024-02-16T02:17:11;11.68;;;3.78;;
54139;SDS011;40046;53.254;5.900;2024-02-16T02:19:38;8.05;;;3.53;;
54139;SDS011;40046;53.254;5.900;2024-02-16T02:22:04;5.93;;;3.83;;
54139;SDS011;40046;53.254;5.900;2024-02-16T02:24:31;8.43;;;3.20;;
54139;SDS011;40046;53.254;5.900;2024-02-16T02:26:57;7.85;;;3.75;;
54139;SDS011;40046;53.254;5.900;2024-02-16T02:29:23;6.40;;;3.30;;
54139;SDS011;40046;53.254;5.900;2024-02-16T02:31:49;5.68;;;3.42;;
54139;SDS011;40046;53.254;5.900;2024-02-16T02:34:15;7.63;;;3.78;;
54139;SDS011;40046;53.254;5.900;2024-02-16T02:36:41;7.50;;;4.07;;
54139;SDS011;40046;53.254;5.900;2024-02-16T02:39:08;6.97;;;4.07;;
54139;SDS011;40046;53.254;5.900;2024-02-16T02:41:34;6.20;;;3.17;;
54139;SDS011;40046;53.254;5.900;2024-02-16T02:44:00;7.72;;;3.45;;
54139;SDS011;40046;53.254;5.900;2024-02-16T02:46:26;8.07;;;3.92;;
54139;SDS011;40046;53.254;5.900;2024-02-16T02:48:52;8.68;;;4.32;;
54139;SDS011;40046;53.254;5.900;2024-02-16T02:51:19;6.10;;;3.63;;
54139;SDS011;40046;53.254;5.900;2024-02-16T02:53:45;9.90;;;3.90;;
54139;SDS011;40046;53.254;5.900;2024-02-16T02:56:11;8.55;;;4.13;;
54139;SDS011;40046;53.254;5.900;2024-02-16T02:58:40;8.27;;;4.10;;
54139;SDS011;40046;53.254;5.900;2024-02-16T03:01:06;6.85;;;3.75;;
54139;SDS011;40046;53.254;5.900;2024-02-16T03:03:33;7.72;;;3.75;;
54139;SDS011;40046;53.254;5.900;2024-02-16T03:05:59;5.38;;;3.30;;
54139;SDS011;40046;53.254;5.900;2024-02-16T03:08:25;6.45;;;4.10;;
54139;SDS011;40046;53.254;5.900;2024-02-16T03:10:52;8.18;;;3.83;;
54139;SDS011;40046;53.254;5.900;2024-02-16T03:13:18;9.57;;;4.00;;
54139;SDS011;40046;53.254;5.900;2024-02-16T03:15:45;7.97;;;4.05;;
54139;SDS011;40046;53.254;5.900;2024-02-16T03:18:11;7.68;;;3.20;;
54139;SDS011;40046;53.254;5.900;2024-02-16T03:20:37;5.80;;;3.30;;
54139;SDS011;40046;53.254;5.900;2024-02-16T03:23:04;6.63;;;3.42;;
54139;SDS011;40046;53.254;5.900;2024-02-16T03:25:30;7.82;;;3.75;;
54139;SDS011;40046;53.254;5.900;2024-02-16T03:27:56;6.70;;;3.92;;
54139;SDS011;40046;53.254;5.900;2024-02-16T03:30:22;14.60;;;3.80;;
54139;SDS011;40046;53.254;5.900;2024-02-16T03:32:49;8.90;;;4.20;;
54139;SDS011;40046;53.254;5.900;2024-02-16T03:35:16;9.30;;;4.13;;
54139;SDS011;40046;53.254;5.900;2024-02-16T03:37:45;8.25;;;4.28;;
54139;SDS011;40046;53.254;5.900;2024-02-16T03:40:11;7.60;;;4.05;;
54139;SDS011;40046;53.254;5.900;2024-02-16T03:42:38;8.77;;;3.92;;
54139;SDS011;40046;53.254;5.900;2024-02-16T03:45:06;10.63;;;4.72;;
54139;SDS011;40046;53.254;5.900;2024-02-16T03:47:32;7.80;;;4.53;;
54139;SDS011;40046;53.254;5.900;2024-02-16T03:49:58;11.15;;;4.25;;
54139;SDS011;40046;53.254;5.900;2024-02-16T03:52:25;10.05;;;3.53;;
54139;SDS011;40046;53.254;5.900;2024-02-16T03:54:51;8.55;;;3.83;;
54139;SDS011;40046;53.254;5.900;2024-02-16T03:57:17;5.60;;;3.67;;
54139;SDS011;40046;53.254;5.900;2024-02-16T03:59:43;8.80;;;4.03;;
54139;SDS011;40046;53.254;5.900;2024-02-16T04:02:10;7.97;;;3.90;;
54139;SDS011;40046;53.254;5.900;2024-02-16T04:04:36;8.23;;;4.07;;
54139;SDS011;40046;53.254;5.900;2024-02-16T04:07:02;7.38;;;3.90;;
54139;SDS011;40046;53.254;5.900;2024-02-16T04:09:28;6.10;;;3.40;;
54139;SDS011;40046;53.254;5.900;2024-02-16T04:11:55;8.18;;;4.05;;
54139;SDS011;40046;53.254;5.900;2024-02-16T04:14:21;6.82;;;3.83;;
54139;SDS011;40046;53.254;5.900;2024-02-16T04:16:47;7.45;;;3.60;;
54139;SDS011;40046;53.254;5.900;2024-02-16T04:19:13;7.57;;;4.25;;
54139;SDS011;40046;53.254;5.900;2024-02-16T04:21:39;8.90;;;4.15;;
54139;SDS011;40046;53.254;5.900;2024-02-16T04:24:05;8.13;;;3.72;;
54139;SDS011;40046;53.254;5.900;2024-02-16T04:26:32;10.70;;;4.32;;
54139;SDS011;40046;53.254;5.900;2024-02-16T04:28:58;7.88;;;4.10;;
54139;SDS011;40046;53.254;5.900;2024-02-16T04:31:24;9.45;;;4.20;;
54139;SDS011;40046;53.254;5.900;2024-02-16T04:33:50;12.15;;;4.03;;
54139;SDS011;40046;53.254;5.900;2024-02-16T04:36:16;7.53;;;4.18;;
54139;SDS011;40046;53.254;5.900;2024-02-16T04:38:43;8.57;;;4.53;;
54139;SDS011;40046;53.254;5.900;2024-02-16T04:41:09;6.15;;;4.15;;
54139;SDS011;40046;53.254;5.900;2024-02-16T04:43:36;5.75;;;3.80;;
54139;SDS011;40046;53.254;5.900;2024-02-16T04:46:02;8.73;;;4.03;;
54139;SDS011;40046;53.254;5.900;2024-02-16T04:48:28;9.40;;;4.00;;
54139;SDS011;40046;53.254;5.900;2024-02-16T04:50:54;8.50;;;4.63;;
54139;SDS011;40046;53.254;5.900;2024-02-16T04:53:21;7.70;;;4.30;;
54139;SDS011;40046;53.254;5.900;2024-02-16T04:55:47;7.63;;;4.18;;
54139;SDS011;40046;53.254;5.900;2024-02-16T04:58:13;6.18;;;3.90;;
54139;SDS011;40046;53.254;5.900;2024-02-16T05:00:39;7.07;;;3.80;;
54139;SDS011;40046;53.254;5.900;2024-02-16T05:03:06;10.48;;;4.68;;
54139;SDS011;40046;53.254;5.900;2024-02-16T05:05:32;7.60;;;4.40;;
54139;SDS011;40046;53.254;5.900;2024-02-16T05:07:58;6.85;;;4.18;;
54139;SDS011;40046;53.254;5.900;2024-02-16T05:10:24;8.43;;;4.40;;
54139;SDS011;40046;53.254;5.900;2024-02-16T05:12:50;8.70;;;4.18;;
54139;SDS011;40046;53.254;5.900;2024-02-16T05:15:17;9.20;;;4.28;;
54139;SDS011;40046;53.254;5.900;2024-02-16T05:17:46;7.38;;;4.00;;
54139;SDS011;40046;53.254;5.900;2024-02-16T05:20:14;7.60;;;4.05;;
54139;SDS011;40046;53.254;5.900;2024-02-16T05:22:46;11.73;;;4.57;;
54139;SDS011;40046;53.254;5.900;2024-02-16T05:25:14;8.40;;;4.03;;
54139;SDS011;40046;53.254;5.900;2024-02-16T05:27:40;6.95;;;4.32;;
54139;SDS011;40046;53.254;5.900;2024-02-16T05:30:09;7.80;;;4.20;;
54139;SDS011;40046;53.254;5.900;2024-02-16T05:32:36;8.82;;;4.30;;
54139;SDS011;40046;53.254;5.900;2024-02-16T05:35:06;6.22;;;3.88;;
54139;SDS011;40046;53.254;5.900;2024-02-16T05:37:40;8.00;;;4.25;;
54139;SDS011;40046;53.254;5.900;2024-02-16T05:40:09;8.35;;;4.28;;
54139;SDS011;40046;53.254;5.900;2024-02-16T05:42:50;7.15;;;5.10;;
54139;SDS011;40046;53.254;5.900;2024-02-16T05:45:17;8.50;;;3.97;;
54139;SDS011;40046;53.254;5.900;2024-02-16T05:47:44;8.52;;;4.97;;
54139;SDS011;40046;53.254;5.900;2024-02-16T05:50:11;8.88;;;4.63;;
54139;SDS011;40046;53.254;5.900;2024-02-16T05:52:37;6.25;;;3.88;;
54139;SDS011;40046;53.254;5.900;2024-02-16T05:55:05;7.30;;;3.75;;
54139;SDS011;40046;53.254;5.900;2024-02-16T05:57:31;7.55;;;4.22;;
54139;SDS011;40046;53.254;5.900;2024-02-16T05:59:57;7.97;;;4.70;;
54139;SDS011;40046;53.254;5.900;2024-02-16T06:02:23;8.02;;;4.57;;
54139;SDS011;40046;53.254;5.900;2024-02-16T06:04:53;5.80;;;3.58;;
54139;SDS011;40046;53.254;5.900;2024-02-16T06:07:19;6.40;;;4.07;;
54139;SDS011;40046;53.254;5.900;2024-02-16T06:09:45;6.15;;;3.75;;
54139;SDS011;40046;53.254;5.900;2024-02-16T06:12:11;6.10;;;5.00;;
54139;SDS011;40046;53.254;5.900;2024-02-16T06:14:38;8.73;;;4.78;;
54139;SDS011;40046;53.254;5.900;2024-02-16T06:17:04;6.10;;;4.38;;
54139;SDS011;40046;53.254;5.900;2024-02-16T06:19:30;8.52;;;4.43;;
54139;SDS011;40046;53.254;5.900;2024-02-16T06:21:56;8.48;;;4.75;;
54139;SDS011;40046;53.254;5.900;2024-02-16T06:24:24;9.40;;;4.75;;
54139;SDS011;40046;53.254;5.900;2024-02-16T06:26:50;8.50;;;4.78;;
54139;SDS011;40046;53.254;5.900;2024-02-16T06:29:17;9.77;;;4.43;;
54139;SDS011;40046;53.254;5.900;2024-02-16T06:31:46;6.57;;;4.45;;
54139;SDS011;40046;53.254;5.900;2024-02-16T06:34:13;9.38;;;4.70;;
54139;SDS011;40046;53.254;5.900;2024-02-16T06:36:39;9.52;;;4.57;;
54139;SDS011;40046;53.254;5.900;2024-02-16T06:39:05;9.57;;;4.32;;
54139;SDS011;40046;53.254;5.900;2024-02-16T06:41:32;8.35;;;4.68;;
54139;SDS011;40046;53.254;5.900;2024-02-16T06:43:58;6.38;;;4.50;;
54139;SDS011;40046;53.254;5.900;2024-02-16T06:46:24;9.38;;;4.78;;
54139;SDS011;40046;53.254;5.900;2024-02-16T06:48:52;6.47;;;4.07;;
54139;SDS011;40046;53.254;5.900;2024-02-16T06:51:24;7.25;;;3.75;;
54139;SDS011;40046;53.254;5.900;2024-02-16T06:53:52;7.40;;;4.75;;
54139;SDS011;40046;53.254;5.900;2024-02-16T06:56:18;8.57;;;4.65;;
54139;SDS011;40046;53.254;5.900;2024-02-16T06:58:44;6.40;;;4.90;;
54139;SDS011;40046;53.254;5.900;2024-02-16T07:01:12;9.95;;;4.25;;
54139;SDS011;40046;53.254;5.900;2024-02-16T07:03:38;6.63;;;4.32;;
54139;SDS011;40046;53.254;5.900;2024-02-16T07:06:04;6.78;;;4.50;;
54139;SDS011;40046;53.254;5.900;2024-02-16T07:08:35;7.75;;;4.00;;
54139;SDS011;40046;53.254;5.900;2024-02-16T07:11:02;8.93;;;4.35;;
54139;SDS011;40046;53.254;5.900;2024-02-16T07:13:28;7.25;;;4.32;;
54139;SDS011;40046;53.254;5.900;2024-02-16T07:15:55;6.13;;;4.35;;
54139;SDS011;40046;53.254;5.900;2024-02-16T07:18:21;13.82;;;4.30;;
54139;SDS011;40046;53.254;5.900;2024-02-16T07:20:47;8.40;;;4.80;;
54139;SDS011;40046;53.254;5.900;2024-02-16T07:23:13;8.55;;;4.78;;
54139;SDS011;40046;53.254;5.900;2024-02-16T07:25:40;7.63;;;4.35;;
54139;SDS011;40046;53.254;5.900;2024-02-16T07:28:07;8.93;;;4.90;;
54139;SDS011;40046;53.254;5.900;2024-02-16T07:30:34;7.25;;;4.90;;
54139;SDS011;40046;53.254;5.900;2024-02-16T07:33:04;6.78;;;4.55;;
54139;SDS011;40046;53.254;5.900;2024-02-16T07:35:30;10.80;;;4.55;;
54139;SDS011;40046;53.254;5.900;2024-02-16T07:37:56;6.97;;;4.53;;
54139;SDS011;40046;53.254;5.900;2024-02-16T07:40:22;19.88;;;8.02;;
54139;SDS011;40046;53.254;5.900;2024-02-16T07:42:49;7.93;;;4.82;;
54139;SDS011;40046;53.254;5.900;2024-02-16T07:45:15;9.43;;;5.22;;
54139;SDS011;40046;53.254;5.900;2024-02-16T07:47:41;7.53;;;4.68;;
54139;SDS011;40046;53.254;5.900;2024-02-16T07:50:07;7.80;;;4.50;;
54139;SDS011;40046;53.254;5.900;2024-02-16T07:52:34;8.90;;;4.20;;
54139;SDS011;40046;53.254;5.900;2024-02-16T07:55:00;9.77;;;6.07;;
54139;SDS011;40046;53.254;5.900;2024-02-16T07:57:26;11.98;;;5.47;;
54139;SDS011;40046;53.254;5.900;2024-02-16T07:59:53;8.50;;;4.90;;
54139;SDS011;40046;53.254;5.900;2024-02-16T08:02:19;9.70;;;5.00;;
54139;SDS011;40046;53.254;5.900;2024-02-16T08:04:51;9.35;;;5.95;;
54139;SDS011;40046;53.254;5.900;2024-02-16T08:07:17;7.40;;;5.07;;
54139;SDS011;40046;53.254;5.900;2024-02-16T08:09:44;7.55;;;5.10;;
54139;SDS011;40046;53.254;5.900;2024-02-16T08:12:10;9.25;;;4.97;;
54139;SDS011;40046;53.254;5.900;2024-02-16T08:14:37;12.38;;;6.07;;
54139;SDS011;40046;53.254;5.900;2024-02-16T08:17:04;7.03;;;5.45;;
54139;SDS011;40046;53.254;5.900;2024-02-16T08:19:36;8.20;;;4.93;;
54139;SDS011;40046;53.254;5.900;2024-02-16T08:22:03;8.50;;;5.78;;
54139;SDS011;40046;53.254;5.900;2024-02-16T08:24:33;7.97;;;5.13;;
54139;SDS011;40046;53.254;5.900;2024-02-16T08:26:59;8.75;;;5.70;;
54139;SDS011;40046;53.254;5.900;2024-02-16T08:29:25;9.30;;;5.63;;
54139;SDS011;40046;53.254;5.900;2024-02-16T08:31:52;9.02;;;5.75;;
54139;SDS011;40046;53.254;5.900;2024-02-16T08:34:18;8.02;;;5.35;;
54139;SDS011;40046;53.254;5.900;2024-02-16T08:36:44;7.70;;;5.30;;
54139;SDS011;40046;53.254;5.900;2024-02-16T08:39:11;8.30;;;4.93;;
54139;SDS011;40046;53.254;5.900;2024-02-16T08:41:38;8.15;;;5.40;;
54139;SDS011;40046;53.254;5.900;2024-02-16T08:44:05;7.63;;;5.28;;
54139;SDS011;40046;53.254;5.900;2024-02-16T08:46:34;11.45;;;5.43;;
54139;SDS011;40046;53.254;5.900;2024-02-16T08:49:01;7.57;;;5.00;;
54139;SDS011;40046;53.254;5.900;2024-02-16T08:51:27;9.15;;;4.90;;
54139;SDS011;40046;53.254;5.900;2024-02-16T08:53:54;7.90;;;5.20;;
54139;SDS011;40046;53.254;5.900;2024-02-16T08:56:20;9.45;;;5.45;;
54139;SDS011;40046;53.254;5.900;2024-02-16T08:58:46;8.88;;;5.85;;
54139;SDS011;40046;53.254;5.900;2024-02-16T09:01:12;10.73;;;6.43;;
54139;SDS011;40046;53.254;5.900;2024-02-16T09:03:38;8.63;;;5.43;;
54139;SDS011;40046;53.254;5.900;2024-02-16T09:06:06;9.68;;;6.43;;
54139;SDS011;40046;53.254;5.900;2024-02-16T09:08:32;9.60;;;6.22;;
54139;SDS011;40046;53.254;5.900;2024-02-16T09:11:03;9.90;;;5.88;;
54139;SDS011;40046;53.254;5.900;2024-02-16T09:13:36;10.35;;;6.43;;
54139;SDS011;40046;53.254;5.900;2024-02-16T09:16:02;8.10;;;5.45;;
54139;SDS011;40046;53.254;5.900;2024-02-16T09:18:29;11.30;;;4.88;;
54139;SDS011;40046;53.254;5.900;2024-02-16T09:20:55;10.43;;;6.05;;
54139;SDS011;40046;53.254;5.900;2024-02-16T09:23:21;8.13;;;5.22;;
54139;SDS011;40046;53.254;5.900;2024-02-16T09:25:48;9.07;;;6.13;;
54139;SDS011;40046;53.254;5.900;2024-02-16T09:28:16;8.45;;;6.07;;
54139;SDS011;40046;53.254;5.900;2024-02-16T09:30:44;11.00;;;6.55;;
54139;SDS011;40046;53.254;5.900;2024-02-16T09:33:10;9.80;;;6.35;;
54139;SDS011;40046;53.254;5.900;2024-02-16T09:35:36;7.05;;;5.35;;
54139;SDS011;40046;53.254;5.900;2024-02-16T09:38:03;9.38;;;5.68;;
54139;SDS011;40046;53.254;5.900;2024-02-16T09:40:29;8.52;;;5.97;;
54139;SDS011;40046;53.254;5.900;2024-02-16T09:42:55;8.57;;;6.20;;
54139;SDS011;40046;53.254;5.900;2024-02-16T09:45:21;8.57;;;5.95;;
54139;SDS011;40046;53.254;5.900;2024-02-16T09:47:49;9.07;;;6.18;;
54139;SDS011;40046;53.254;5.900;2024-02-16T09:50:16;10.35;;;6.20;;
54139;SDS011;40046;53.254;5.900;2024-02-16T09:52:46;8.90;;;6.28;;
54139;SDS011;40046;53.254;5.900;2024-02-16T09:55:13;8.10;;;6.22;;
54139;SDS011;40046;53.254;5.900;2024-02-16T09:57:40;16.20;;;7.50;;
54139;SDS011;40046;53.254;5.900;2024-02-16T10:00:06;8.55;;;6.68;;
54139;SDS011;40046;53.254;5.900;2024-02-16T10:02:43;10.35;;;6.78;;
54139;SDS011;40046;53.254;5.900;2024-02-16T10:05:17;12.82;;;7.15;;
54139;SDS011;40046;53.254;5.900;2024-02-16T10:07:43;14.93;;;8.32;;
54139;SDS011;40046;53.254;5.900;2024-02-16T10:10:26;16.90;;;9.75;;
54139;SDS011;40046;53.254;5.900;2024-02-16T10:13:04;14.45;;;9.07;;
54139;SDS011;40046;53.254;5.900;2024-02-16T10:15:34;16.65;;;9.00;;
54139;SDS011;40046;53.254;5.900;2024-02-16T10:18:01;19.08;;;10.27;;
54139;SDS011;40046;53.254;5.900;2024-02-16T10:20:28;19.02;;;10.85;;
54139;SDS011;40046;53.254;5.900;2024-02-16T10:25:30;24.92;;;13.52;;
54139;SDS011;40046;53.254;5.900;2024-02-16T10:27:57;27.90;;;12.93;;
54139;SDS011;40046;53.254;5.900;2024-02-16T10:30:27;28.35;;;13.55;;
54139;SDS011;40046;53.254;5.900;2024-02-16T10:32:56;32.35;;;14.50;;
54139;SDS011;40046;53.254;5.900;2024-02-16T10:35:24;34.53;;;16.67;;
54139;SDS011;40046;53.254;5.900;2024-02-16T10:37:54;28.02;;;14.32;;
54139;SDS011;40046;53.254;5.900;2024-02-16T10:40:25;31.67;;;16.80;;
54139;SDS011;40046;53.254;5.900;2024-02-16T10:42:52;37.30;;;17.23;;
54139;SDS011;40046;53.254;5.900;2024-02-16T10:45:18;34.53;;;16.52;;
54139;SDS011;40046;53.254;5.900;2024-02-16T10:47:44;28.08;;;15.32;;
54139;SDS011;40046;53.254;5.900;2024-02-16T10:50:11;29.63;;;15.07;;
54139;SDS011;40046;53.254;5.900;2024-02-16T10:52:39;24.30;;;14.23;;
54139;SDS011;40046;53.254;5.900;2024-02-16T10:55:07;28.73;;;14.68;;
54139;SDS011;40046;53.254;5.900;2024-02-16T10:57:37;23.60;;;11.02;;
54139;SDS011;40046;53.254;5.900;2024-02-16T11:00:09;31.90;;;14.27;;
54139;SDS011;40046;53.254;5.900;2024-02-16T11:02:52;30.90;;;13.50;;
54139;SDS011;40046;53.254;5.900;2024-02-16T11:05:31;22.55;;;11.65;;
54139;SDS011;40046;53.254;5.900;2024-02-16T11:08:01;23.35;;;11.52;;
54139;SDS011;40046;53.254;5.900;2024-02-16T11:10:27;21.33;;;11.55;;
54139;SDS011;40046;53.254;5.900;2024-02-16T11:12:53;28.05;;;12.15;;
54139;SDS011;40046;53.254;5.900;2024-02-16T11:15:33;23.90;;;11.02;;
54139;SDS011;40046;53.254;5.900;2024-02-16T11:18:00;21.45;;;11.80;;
54139;SDS011;40046;53.254;5.900;2024-02-16T11:20:27;18.42;;;10.90;;
54139;SDS011;40046;53.254;5.900;2024-02-16T11:22:53;19.42;;;10.35;;
54139;SDS011;40046;53.254;5.900;2024-02-16T11:25:30;18.63;;;10.02;;
54139;SDS011;40046;53.254;5.900;2024-02-16T11:27:57;17.83;;;9.38;;
54139;SDS011;40046;53.254;5.900;2024-02-16T11:30:23;13.93;;;8.40;;
54139;SDS011;40046;53.254;5.900;2024-02-16T11:32:50;22.00;;;9.43;;
54139;SDS011;40046;53.254;5.900;2024-02-16T11:35:17;15.27;;;9.10;;
54139;SDS011;40046;53.254;5.900;2024-02-16T11:37:43;16.05;;;9.18;;
54139;SDS011;40046;53.254;5.900;2024-02-16T11:40:12;14.93;;;8.25;;
54139;SDS011;40046;53.254;5.900;2024-02-16T11:42:39;11.10;;;7.90;;
54139;SDS011;40046;53.254;5.900;2024-02-16T11:45:09;12.02;;;7.20;;
54139;SDS011;40046;53.254;5.900;2024-02-16T11:47:36;11.35;;;6.72;;
54139;SDS011;40046;53.254;5.900;2024-02-16T11:50:06;11.15;;;6.15;;
54139;SDS011;40046;53.254;5.900;2024-02-16T11:52:39;10.50;;;6.00;;
54139;SDS011;40046;53.254;5.900;2024-02-16T11:55:09;9.25;;;4.90;;
54139;SDS011;40046;53.254;5.900;2024-02-16T11:57:39;10.63;;;5.43;;
54139;SDS011;40046;53.254;5.900;2024-02-16T12:00:06;10.70;;;4.25;;
54139;SDS011;40046;53.254;5.900;2024-02-16T12:02:36;7.05;;;4.25;;
54139;SDS011;40046;53.254;5.900;2024-02-16T12:05:02;6.50;;;3.60;;
54139;SDS011;40046;53.254;5.900;2024-02-16T12:07:29;9.82;;;3.78;;
54139;SDS011;40046;53.254;5.900;2024-02-16T12:09:56;4.60;;;3.28;;
54139;SDS011;40046;53.254;5.900;2024-02-16T12:12:23;4.57;;;2.75;;
54139;SDS011;40046;53.254;5.900;2024-02-16T12:14:49;5.50;;;3.03;;
54139;SDS011;40046;53.254;5.900;2024-02-16T12:17:16;6.32;;;2.78;;
54139;SDS011;40046;53.254;5.900;2024-02-16T12:19:45;6.68;;;2.53;;
54139;SDS011;40046;53.254;5.900;2024-02-16T12:22:21;6.43;;;2.67;;
54139;SDS011;40046;53.254;5.900;2024-02-16T12:24:49;5.65;;;3.10;;
54139;SDS011;40046;53.254;5.900;2024-02-16T12:27:16;4.55;;;1.90;;
54139;SDS011;40046;53.254;5.900;2024-02-16T12:29:42;7.97;;;2.47;;
54139;SDS011;40046;53.254;5.900;2024-02-16T12:32:08;5.20;;;1.80;;
54139;SDS011;40046;53.254;5.900;2024-02-16T12:34:35;9.35;;;2.22;;
54139;SDS011;40046;53.254;5.900;2024-02-16T12:37:05;7.88;;;2.25;;
54139;SDS011;40046;53.254;5.900;2024-02-16T12:39:36;6.40;;;2.55;;
54139;SDS011;40046;53.254;5.900;2024-02-16T12:42:02;6.57;;;2.67;;
54139;SDS011;40046;53.254;5.900;2024-02-16T12:44:29;5.78;;;3.25;;
54139;SDS011;40046;53.254;5.900;2024-02-16T12:46:56;6.82;;;3.40;;
54139;SDS011;40046;53.254;5.900;2024-02-16T12:49:22;7.72;;;2.70;;
54139;SDS011;40046;53.254;5.900;2024-02-16T12:51:49;5.78;;;2.42;;
54139;SDS011;40046;53.254;5.900;2024-02-16T12:54:15;7.22;;;2.20;;
54139;SDS011;40046;53.254;5.900;2024-02-16T12:56:47;6.20;;;2.53;;
54139;SDS011;40046;53.254;5.900;2024-02-16T12:59:14;4.10;;;2.28;;
54139;SDS011;40046;53.254;5.900;2024-02-16T13:01:41;7.72;;;2.25;;
54139;SDS011;40046;53.254;5.900;2024-02-16T13:04:08;7.90;;;2.47;;
54139;SDS011;40046;53.254;5.900;2024-02-16T13:06:34;8.88;;;4.28;;
54139;SDS011;40046;53.254;5.900;2024-02-16T13:09:01;8.43;;;3.42;;
54139;SDS011;40046;53.254;5.900;2024-02-16T13:11:27;4.32;;;2.45;;
54139;SDS011;40046;53.254;5.900;2024-02-16T13:13:54;9.98;;;3.47;;
54139;SDS011;40046;53.254;5.900;2024-02-16T13:16:20;5.00;;;3.03;;
54139;SDS011;40046;53.254;5.900;2024-02-16T13:18:47;10.23;;;3.83;;
54139;SDS011;40046;53.254;5.900;2024-02-16T13:21:13;9.32;;;4.50;;
54139;SDS011;40046;53.254;5.900;2024-02-16T13:23:40;8.50;;;3.88;;
54139;SDS011;40046;53.254;5.900;2024-02-16T13:26:07;10.70;;;3.85;;
54139;SDS011;40046;53.254;5.900;2024-02-16T13:28:33;7.00;;;3.17;;
54139;SDS011;40046;53.254;5.900;2024-02-16T13:30:59;7.72;;;4.05;;
54139;SDS011;40046;53.254;5.900;2024-02-16T13:33:25;8.55;;;4.13;;
54139;SDS011;40046;53.254;5.900;2024-02-16T13:35:51;8.18;;;3.90;;
54139;SDS011;40046;53.254;5.900;2024-02-16T13:38:19;7.10;;;3.97;;
54139;SDS011;40046;53.254;5.900;2024-02-16T13:40:46;9.07;;;4.72;;
54139;SDS011;40046;53.254;5.900;2024-02-16T13:43:13;10.88;;;4.57;;
54139;SDS011;40046;53.254;5.900;2024-02-16T13:45:50;8.30;;;3.90;;
54139;SDS011;40046;53.254;5.900;2024-02-16T13:48:16;12.65;;;4.40;;
54139;SDS011;40046;53.254;5.900;2024-02-16T13:50:44;10.60;;;4.65;;
54139;SDS011;40046;53.254;5.900;2024-02-16T13:53:10;9.75;;;3.92;;
54139;SDS011;40046;53.254;5.900;2024-02-16T13:55:37;10.73;;;4.32;;
54139;SDS011;40046;53.254;5.900;2024-02-16T13:58:03;8.63;;;3.50;;
54139;SDS011;40046;53.254;5.900;2024-02-16T14:00:29;11.35;;;3.85;;
54139;SDS011;40046;53.254;5.900;2024-02-16T14:02:55;7.15;;;3.60;;
54139;SDS011;40046;53.254;5.900;2024-02-16T14:05:22;7.90;;;3.28;;
54139;SDS011;40046;53.254;5.900;2024-02-16T14:07:50;9.13;;;4.45;;
54139;SDS011;40046;53.254;5.900;2024-02-16T14:10:17;11.35;;;4.50;;
54139;SDS011;40046;53.254;5.900;2024-02-16T14:12:46;10.57;;;5.50;;
54139;SDS011;40046;53.254;5.900;2024-02-16T14:15:13;13.60;;;5.55;;
54139;SDS011;40046;53.254;5.900;2024-02-16T14:17:41;9.48;;;5.13;;
54139;SDS011;40046;53.254;5.900;2024-02-16T14:20:08;9.82;;;5.07;;
54139;SDS011;40046;53.254;5.900;2024-02-16T14:22:34;14.90;;;6.03;;
54139;SDS011;40046;53.254;5.900;2024-02-16T14:25:00;15.68;;;6.22;;
54139;SDS011;40046;53.254;5.900;2024-02-16T14:27:26;12.85;;;5.95;;
54139;SDS011;40046;53.254;5.900;2024-02-16T14:29:54;10.63;;;5.40;;
54139;SDS011;40046;53.254;5.900;2024-02-16T14:32:21;14.93;;;5.68;;
54139;SDS011;40046;53.254;5.900;2024-02-16T14:34:47;10.80;;;6.03;;
54139;SDS011;40046;53.254;5.900;2024-02-16T14:37:13;11.27;;;5.32;;
54139;SDS011;40046;53.254;5.900;2024-02-16T14:39:39;14.15;;;5.93;;
54139;SDS011;40046;53.254;5.900;2024-02-16T14:42:05;9.73;;;4.90;;
54139;SDS011;40046;53.254;5.900;2024-02-16T14:44:32;13.20;;;5.18;;